Time;durP1;ratioP1;P1;durP2;ratioP2;P2;SDS_P1;SDS_P2;PMS_P1;PMS_P2;Temp;Humidity;BMP_temperature;BMP_pressure;BME280_temperature;BME280_humidity;BME280_pressure;Samples;Min_cycle;Max_cycle;Signal;HPM_P1;HPM_P2
2021/01/08 00:00:33;;;;;;;;;63.00;49.00;;;;;-1.15;89.80;101044.81;3725744;37;20257;-59
2021/01/08 00:03:00;;;;;;;;;64.75;48.50;;;;;-1.03;89.95;101057.28;3725543;38;20258;-60
2021/01/08 00:05:27;;;;;;;;;51.50;42.25;;;;;-1.01;89.60;101061.56;3725722;37;20258;-58
2021/01/08 00:07:53;;;;;;;;;68.25;48.75;;;;;-1.01;89.51;101060.69;3725533;38;20477;-58
2021/01/08 00:10:19;;;;;;;;;71.75;55.00;;;;;-1.20;89.17;101042.44;3725683;37;20255;-58
2021/01/08 00:12:45;;;;;;;;;62.25;48.75;;;;;-1.16;89.27;101053.72;3725719;37;20243;-57
2021/01/08 00:15:12;;;;;;;;;62.75;49.00;;;;;-1.26;89.53;101050.81;3725564;38;20222;-58
2021/01/08 00:17:42;;;;;;;;;63.25;49.25;;;;;-1.28;89.56;101051.84;3725596;38;20219;-59
2021/01/08 00:20:10;;;;;;;;;64.50;50.00;;;;;-1.26;89.71;101044.63;3725565;38;20243;-58
2021/01/08 00:22:37;;;;;;;;;62.75;52.00;;;;;-1.37;89.82;101029.38;3725577;37;20243;-58
2021/01/08 00:25:03;;;;;;;;;64.50;52.25;;;;;-1.22;89.63;101052.31;3725520;38;20232;-57
2021/01/08 00:27:30;;;;;;;;;66.25;50.25;;;;;-1.22;89.79;101057.63;3725660;37;20202;-58
2021/01/08 00:29:57;;;;;;;;;66.25;51.75;;;;;-1.22;89.74;101060.28;3725332;38;20206;-59
2021/01/08 00:32:27;;;;;;;;;61.00;47.50;;;;;-1.35;89.62;101043.41;3725317;38;20214;-58
2021/01/08 00:34:53;;;;;;;;;62.75;48.75;;;;;-1.15;89.68;101068.72;3725328;38;20197;-58
2021/01/08 00:37:24;;;;;;;;;67.00;51.50;;;;;-1.17;89.58;101060.00;3725731;37;20205;-58
2021/01/08 00:39:51;;;;;;;;;70.25;49.75;;;;;-1.07;89.55;101067.28;3725244;37;20196;-59
2021/01/08 00:42:17;;;;;;;;;64.75;49.50;;;;;-1.05;89.52;101080.47;3725792;38;20188;-58
2021/01/08 00:44:44;;;;;;;;;66.00;53.00;;;;;-1.09;89.69;101073.66;3725677;37;20200;-57
2021/01/08 00:47:11;;;;;;;;;76.75;57.50;;;;;-1.06;89.47;101076.97;3725704;37;20219;-58
2021/01/08 00:49:38;;;;;;;;;68.00;51.50;;;;;-1.10;89.30;101071.94;3725417;37;20205;-58
2021/01/08 00:52:05;;;;;;;;;65.75;54.00;;;;;-1.17;89.35;101060.00;3725525;38;20187;-57
2021/01/08 00:54:32;;;;;;;;;62.50;49.25;;;;;-1.15;89.43;101066.91;3725889;37;20194;-58
2021/01/08 00:56:59;;;;;;;;;67.00;54.25;;;;;-1.16;89.44;101069.66;3725625;37;20198;-58
2021/01/08 00:59:25;;;;;;;;;53.75;48.00;;;;;-1.18;89.37;101063.59;3725034;38;20198;-58
2021/01/08 01:01:52;;;;;;;;;71.00;53.00;;;;;-1.28;89.18;101055.34;3724654;38;20167;-59
2021/01/08 01:04:21;;;;;;;;;71.25;53.00;;;;;-1.29;89.17;101061.63;3725265;37;20183;-59
2021/01/08 01:06:47;;;;;;;;;71.75;51.50;;;;;-1.35;89.18;101062.00;3725413;37;20161;-58
2021/01/08 01:09:15;;;;;;;;;69.00;54.75;;;;;-1.42;89.39;101058.84;3727282;38;20175;-59
2021/01/08 01:11:42;;;;;;;;;43.25;42.00;;;;;-1.48;89.27;101056.59;3726292;37;20179;-58
2021/01/08 01:14:11;;;;;;;;;68.00;52.00;;;;;-1.48;89.58;101066.34;3725263;37;20169;-59
2021/01/08 01:16:37;;;;;;;;;64.25;50.00;;;;;-1.46;89.63;101064.44;3725683;37;20249;-59
2021/01/08 01:19:08;;;;;;;;;59.00;45.50;;;;;-1.42;89.65;101060.66;3725688;38;20156;-58
2021/01/08 01:21:34;;;;;;;;;62.75;46.50;;;;;-1.35;89.75;101064.66;3725304;37;20149;-58
2021/01/08 01:24:01;;;;;;;;;62.25;48.50;;;;;-1.25;89.60;101067.59;3725794;38;20140;-58
2021/01/08 01:26:27;;;;;;;;;68.25;49.25;;;;;-1.21;89.64;101059.34;3725730;38;20269;-58
2021/01/08 01:28:57;;;;;;;;;64.00;48.50;;;;;-1.35;89.40;101040.75;3725764;37;20149;-59
2021/01/08 01:31:24;;;;;;;;;74.25;55.50;;;;;-1.30;89.31;101054.59;3725658;37;20144;-58
2021/01/08 01:33:52;;;;;;;;;68.00;51.50;;;;;-1.36;89.57;101054.97;3725367;38;20438;-58
2021/01/08 01:36:19;;;;;;;;;66.50;50.00;;;;;-1.38;89.52;101046.25;3725534;38;20138;-58
2021/01/08 01:38:45;;;;;;;;;61.50;46.75;;;;;-1.39;89.59;101033.91;3725496;38;20140;-58
2021/01/08 01:41:15;;;;;;;;;62.25;46.50;;;;;-1.23;89.59;101053.25;3725725;37;20126;-59
2021/01/08 01:43:41;;;;;;;;;56.50;44.75;;;;;-1.25;89.42;101056.97;3725564;38;20121;-58
2021/01/08 01:46:16;;;;;;;;;59.75;45.00;;;;;-1.24;89.40;101053.34;3725708;38;20140;-58
2021/01/08 01:48:45;;;;;;;;;58.50;44.00;;;;;-1.20;89.71;101050.41;3725802;38;20106;-58
2021/01/08 01:51:12;;;;;;;;;71.00;55.50;;;;;-1.14;89.52;101057.16;3725280;38;20103;-58
2021/01/08 01:53:39;;;;;;;;;63.00;43.75;;;;;-1.20;89.37;101061.03;3725729;37;20120;-57
2021/01/08 01:56:06;;;;;;;;;60.75;47.00;;;;;-1.29;89.15;101066.91;3725370;37;20092;-58
2021/01/08 01:58:33;;;;;;;;;61.75;48.50;;;;;-1.27;89.24;101072.13;3725640;37;20108;-57
2021/01/08 02:00:59;;;;;;;;;59.25;48.50;;;;;-1.29;89.49;101063.41;3725571;37;20103;-57
2021/01/08 02:03:40;;;;;;;;;56.75;46.25;;;;;-1.33;89.21;101066.25;3725806;38;20086;-58
2021/01/08 02:06:12;;;;;;;;;48.00;39.25;;;;;-1.54;89.47;101035.72;3725803;37;20101;-58
2021/01/08 02:08:44;;;;;;;;;57.50;44.50;;;;;-1.33;89.44;101068.06;3725840;37;20093;-57
2021/01/08 02:11:17;;;;;;;;;45.75;41.50;;;;;-1.36;89.37;101054.97;3725363;37;20098;-58
2021/01/08 02:14:15;;;;;;;;;63.00;46.25;;;;;-1.35;89.38;101054.03;3725747;37;20070;-59
2021/01/08 02:16:45;;;;;;;;;54.25;39.50;;;;;-1.29;89.35;101071.37;3725742;38;20093;-58
2021/01/08 02:19:39;;;;;;;;;53.75;44.00;;;;;-1.39;89.37;101058.66;3725744;37;20066;-57
2021/01/08 02:22:25;;;;;;;;;58.50;46.50;;;;;-1.56;89.19;101055.38;3725601;38;20183;-58
2021/01/08 02:25:16;;;;;;;;;55.25;41.00;;;;;-1.52;89.33;101065.69;3725397;37;20130;-58
2021/01/08 02:28:24;;;;;;;;;50.00;41.75;;;;;-1.51;89.58;101066.53;3725718;37;20046;-57
2021/01/08 02:30:52;;;;;;;;;49.50;41.25;;;;;-1.46;89.49;101081.22;3725668;37;20068;-58
2021/01/08 02:33:20;;;;;;;;;58.25;44.75;;;;;-1.42;89.73;101082.75;3725813;37;20072;-58
2021/01/08 02:35:51;;;;;;;;;54.00;42.00;;;;;-1.52;89.52;101055.06;3725438;37;20047;-57
2021/01/08 02:38:21;;;;;;;;;53.50;42.00;;;;;-1.49;89.78;101048.72;3725041;37;20070;-58
2021/01/08 02:40:51;;;;;;;;;59.50;44.00;;;;;-1.33;89.76;101065.41;3725240;38;20057;-58
2021/01/08 02:43:26;;;;;;;;;44.25;37.75;;;;;-1.34;89.67;101058.38;3725848;37;20036;-57
2021/01/08 02:45:53;;;;;;;;;61.50;48.00;;;;;-1.38;89.66;101048.91;3725120;37;20045;-58
2021/01/08 02:48:21;;;;;;;;;62.50;46.00;;;;;-1.31;89.57;101071.47;3725734;37;20027;-57
2021/01/08 02:50:48;;;;;;;;;65.00;45.75;;;;;-1.35;89.29;101062.00;3725334;37;20046;-58
2021/01/08 02:53:16;;;;;;;;;58.25;48.00;;;;;-1.36;89.28;101057.63;3725656;37;20024;-57
2021/01/08 02:56:08;;;;;;;;;59.50;46.25;;;;;-1.33;89.40;101044.16;3725636;38;20024;-57
2021/01/08 02:58:36;;;;;;;;;60.50;46.75;;;;;-1.26;89.52;101052.59;3725750;37;20036;-57
2021/01/08 03:01:04;;;;;;;;;59.50;46.25;;;;;-1.23;89.79;101055.06;3725550;37;20011;-58
2021/01/08 03:03:31;;;;;;;;;53.75;46.00;;;;;-1.07;89.72;101053.16;3725298;37;20007;-57
2021/01/08 03:06:00;;;;;;;;;63.25;48.00;;;;;-1.08;89.57;101051.44;3725799;38;20030;-57
2021/01/08 03:08:28;;;;;;;;;52.00;40.25;;;;;-1.10;89.38;101061.31;3725783;37;20029;-57
2021/01/08 03:10:56;;;;;;;;;39.00;35.50;;;;;-1.08;89.26;101062.94;3725705;38;20014;-57
2021/01/08 03:13:25;;;;;;;;;61.75;47.75;;;;;-1.02;89.28;101051.88;3725865;38;20002;-57
2021/01/08 03:15:51;;;;;;;;;52.00;43.00;;;;;-0.94;89.40;101048.75;3725306;38;20005;-58
2021/01/08 03:18:19;;;;;;;;;60.25;48.00;;;;;-0.96;89.05;101045.31;3725919;37;19999;-59
2021/01/08 03:20:47;;;;;;;;;61.25;44.75;;;;;-1.05;89.03;101044.13;3725313;38;20004;-59
2021/01/08 03:23:14;;;;;;;;;85.00;65.75;;;;;-1.04;89.47;101045.81;3725748;38;20012;-59
2021/01/08 03:25:41;;;;;;;;;54.75;45.00;;;;;-1.10;89.13;101038.25;3725832;38;17707;-59
2021/01/08 03:28:08;;;;;;;;;67.25;54.25;;;;;-0.96;89.31;101037.34;3725838;37;19973;-57
2021/01/08 03:30:34;;;;;;;;;74.00;57.50;;;;;-0.98;89.25;101041.06;3725220;38;19988;-59
2021/01/08 03:33:01;;;;;;;;;66.00;49.00;;;;;-1.01;89.44;101048.28;3725866;37;19970;-59
2021/01/08 03:35:27;;;;;;;;;54.00;45.00;;;;;-1.06;89.24;101039.78;3725887;37;19972;-59
2021/01/08 03:37:54;;;;;;;;;55.00;45.25;;;;;-0.97;89.68;101051.59;3725792;38;19964;-59
2021/01/08 03:40:25;;;;;;;;;57.25;47.25;;;;;-0.87;89.66;101049.19;3725616;37;19979;-58
2021/01/08 03:42:54;;;;;;;;;54.25;44.25;;;;;-0.89;89.11;101051.97;3727355;38;19980;-59
2021/01/08 03:45:20;;;;;;;;;65.75;50.50;;;;;-0.94;89.24;101058.50;3726191;37;19954;-58
2021/01/08 03:47:47;;;;;;;;;63.00;50.00;;;;;-0.91;89.37;101064.47;3725651;38;19981;-59
2021/01/08 03:50:15;;;;;;;;;66.25;51.50;;;;;-0.83;89.48;101064.00;3725696;37;19958;-58
2021/01/08 03:52:42;;;;;;;;;68.00;53.00;;;;;-0.86;89.20;101059.72;3725635;37;19954;-59
2021/01/08 03:55:11;;;;;;;;;66.50;52.75;;;;;-0.85;89.32;101065.91;3725867;37;19933;-57
2021/01/08 03:57:39;;;;;;;;;62.25;48.25;;;;;-0.87;89.29;101055.38;3725572;38;19941;-58
2021/01/08 04:00:07;;;;;;;;;63.50;50.25;;;;;-0.85;89.54;101042.00;3725626;37;19958;-58
2021/01/08 04:02:34;;;;;;;;;58.75;45.75;;;;;-0.85;89.40;101034.00;3725253;38;19945;-59
2021/01/08 04:05:02;;;;;;;;;62.25;51.75;;;;;-0.70;89.39;101056.94;3725824;38;19927;-58
2021/01/08 04:07:28;;;;;;;;;65.25;52.50;;;;;-0.82;88.96;101055.94;3725768;37;19943;-57
2021/01/08 04:09:54;;;;;;;;;70.75;53.75;;;;;-0.75;89.36;101077.66;3725670;38;19942;-58
2021/01/08 04:12:21;;;;;;;;;65.25;47.75;;;;;-0.80;89.04;101074.44;3725592;37;19936;-60
2021/01/08 04:14:54;;;;;;;;;66.25;51.50;;;;;-0.69;89.45;101093.19;3725424;37;19910;-58
2021/01/08 04:17:21;;;;;;;;;74.75;54.50;;;;;-0.69;89.47;101074.59;3725360;38;20056;-59
2021/01/08 04:19:47;;;;;;;;;69.00;52.75;;;;;-0.62;89.18;101077.72;3725386;38;19938;-57
2021/01/08 04:22:14;;;;;;;;;71.50;53.50;;;;;-0.59;89.29;101090.81;3725522;38;19906;-56
2021/01/08 04:24:40;;;;;;;;;71.25;53.50;;;;;-0.60;89.19;101081.97;3725790;38;19902;-59
2021/01/08 04:27:09;;;;;;;;;21.50;21.50;;;;;-0.62;89.23;101083.88;3725664;37;19915;-57
2021/01/08 04:29:35;;;;;;;;;74.50;55.25;;;;;-0.64;89.27;101084.94;3725365;38;19902;-57
2021/01/08 04:32:05;;;;;;;;;74.75;53.00;;;;;-0.73;88.93;101086.38;3725664;37;19903;-57
2021/01/08 04:34:32;;;;;;;;;74.75;56.25;;;;;-0.76;89.25;101086.56;3725708;37;19904;-59
2021/01/08 04:36:59;;;;;;;;;49.25;40.50;;;;;-0.88;89.02;101079.38;3725420;38;19904;-58
2021/01/08 04:39:28;;;;;;;;;66.00;52.00;;;;;-0.94;89.13;101058.50;3725890;38;19896;-59
2021/01/08 04:41:57;;;;;;;;;60.25;47.50;;;;;-0.97;89.25;101058.72;3725366;37;19909;-58
2021/01/08 04:44:24;;;;;;;;;64.50;47.00;;;;;-0.97;89.35;101051.59;3725163;37;20034;-58
2021/01/08 04:46:57;;;;;;;;;68.25;52.75;;;;;-0.78;89.25;101051.28;3725290;38;19889;-58
2021/01/08 04:49:32;;;;;;;;;80.50;56.75;;;;;-0.69;89.24;101056.84;3725897;37;19892;-57
2021/01/08 04:52:00;;;;;;;;;69.75;53.50;;;;;-0.79;88.87;101045.09;3725428;38;19868;-58
2021/01/08 04:54:28;;;;;;;;;65.25;48.00;;;;;-0.80;89.07;101061.16;3725643;37;19885;-59
2021/01/08 04:56:57;;;;;;;;;66.75;53.50;;;;;-0.97;89.07;101050.75;3725382;38;19895;-59
2021/01/08 04:59:26;;;;;;;;;70.50;52.00;;;;;-0.94;89.04;101070.00;3725764;37;19857;-58
2021/01/08 05:01:53;;;;;;;;;66.50;51.25;;;;;-1.09;89.26;101041.78;3725450;38;19881;-58
2021/01/08 05:04:23;;;;;;;;;67.25;52.75;;;;;-1.18;89.03;101035.25;3725605;37;19861;-59
2021/01/08 05:06:49;;;;;;;;;62.25;48.50;;;;;-1.12;88.92;101073.84;3725544;38;19852;-58
2021/01/08 05:09:16;;;;;;;;;63.50;50.25;;;;;-1.12;89.16;101071.19;3725706;38;19861;-57
2021/01/08 05:11:46;;;;;;;;;63.00;52.00;;;;;-1.06;89.13;101076.12;3724127;38;19867;-58
2021/01/08 05:14:15;;;;;;;;;63.50;50.00;;;;;-1.03;89.18;101087.38;3725491;38;19822;-59
2021/01/08 05:16:42;;;;;;;;;58.75;45.75;;;;;-1.10;89.04;101079.91;3725813;37;19857;-59
2021/01/08 05:19:10;;;;;;;;;58.50;47.00;;;;;-1.12;89.22;101076.50;3725654;37;19830;-60
2021/01/08 05:21:37;;;;;;;;;48.25;42.00;;;;;-1.24;88.97;101064.84;3724920;37;20180;-58
2021/01/08 05:24:05;;;;;;;;;65.25;49.00;;;;;-1.10;89.10;101082.56;3725546;37;19842;-59
2021/01/08 05:26:32;;;;;;;;;56.00;43.50;;;;;-1.09;89.28;101089.59;3725467;37;19839;-61
2021/01/08 05:29:04;;;;;;;;;51.75;42.75;;;;;-1.10;89.05;101090.53;3725392;37;19845;-60
2021/01/08 05:31:34;;;;;;;;;56.75;44.50;;;;;-1.17;88.84;101091.88;3725330;38;19843;-61
2021/01/08 05:34:03;;;;;;;;;59.75;46.75;;;;;-1.13;88.94;101096.03;3725319;38;19834;-60
2021/01/08 05:36:30;;;;;;;;;48.25;44.25;;;;;-1.23;89.12;101087.78;3725896;38;19819;-58
2021/01/08 05:38:59;;;;;;;;;58.25;47.50;;;;;-1.12;88.98;101108.37;3725965;38;19822;-59
2021/01/08 05:41:30;;;;;;;;;59.75;44.75;;;;;-1.07;89.17;101109.78;3725305;38;19803;-59
2021/01/08 05:43:58;;;;;;;;;56.00;45.50;;;;;-0.98;89.18;101102.16;3725525;37;19820;-58
2021/01/08 05:46:38;;;;;;;;;57.00;47.50;;;;;-1.00;89.08;101103.12;3725478;38;19903;-58
2021/01/08 05:49:08;;;;;;;;;57.00;46.25;;;;;-1.13;88.77;101091.56;3725944;37;19796;-59
2021/01/08 05:51:39;;;;;;;;;46.25;42.50;;;;;-1.17;89.02;101102.50;3725794;38;19808;-60
2021/01/08 05:54:07;;;;;;;;;45.25;32.25;;;;;-1.16;88.81;101098.88;3725846;37;19802;-60
2021/01/08 05:56:39;;;;;;;;;29.50;22.50;;;;;-1.22;88.99;101094.81;3725491;37;19807;-59
2021/01/08 05:59:09;;;;;;;;;55.00;45.00;;;;;-1.28;88.98;101084.56;3725362;38;20776;-61
2021/01/08 06:01:37;;;;;;;;;57.00;44.00;;;;;-1.34;89.01;101080.47;3725341;37;20763;-61
2021/01/08 06:04:07;;;;;;;;;48.50;44.00;;;;;-1.79;89.04;101020.47;3725865;38;20778;-60
2021/01/08 06:06:45;;;;;;;;;50.00;41.50;;;;;-1.45;88.89;101088.25;3725803;37;20779;-59
2021/01/08 06:09:16;;;;;;;;;63.25;44.25;;;;;-1.63;89.03;101062.84;3725840;37;20787;-59
2021/01/08 06:11:46;;;;;;;;;49.75;39.50;;;;;-1.47;88.99;101083.97;3725662;38;20764;-58
2021/01/08 06:14:15;;;;;;;;;60.25;44.25;;;;;-1.50;89.21;101079.72;3725955;37;20781;-60
2021/01/08 06:16:48;;;;;;;;;58.25;41.75;;;;;-1.60;89.33;101067.13;3726746;37;20757;-60
2021/01/08 06:19:16;;;;;;;;;50.50;41.50;;;;;-1.53;89.19;101085.19;3725626;38;20747;-59
2021/01/08 06:21:44;;;;;;;;;71.50;55.00;;;;;-1.55;89.19;101080.94;3725474;37;20759;-60
2021/01/08 06:24:28;;;;;;;;;76.25;57.25;;;;;-1.62;88.89;101080.50;3725750;38;20767;-59
2021/01/08 06:26:55;;;;;;;;;78.25;56.25;;;;;-1.53;89.17;101079.03;3725260;38;20740;-60
2021/01/08 06:29:29;;;;;;;;;74.50;57.00;;;;;-1.58;89.21;101083.81;3725474;37;20745;-61
2021/01/08 06:32:03;;;;;;;;;68.75;56.00;;;;;-1.64;89.43;101071.75;3725616;38;20743;-59
2021/01/08 06:34:31;;;;;;;;;63.50;50.75;;;;;-1.55;89.04;101065.00;3725670;37;20728;-59
2021/01/08 06:37:06;;;;;;;;;66.25;50.00;;;;;-1.53;89.14;101065.78;3725318;37;20728;-58
2021/01/08 06:39:46;;;;;;;;;57.00;43.50;;;;;-1.47;89.17;101074.22;3725401;37;20720;-60
2021/01/08 06:42:29;;;;;;;;;64.75;52.50;;;;;-1.49;89.03;101069.94;3725810;37;20744;-60
2021/01/08 06:44:56;;;;;;;;;64.00;50.75;;;;;-1.49;88.97;101073.44;3725578;37;20743;-60
2021/01/08 06:47:23;;;;;;;;;72.25;55.25;;;;;-1.42;89.23;101084.56;3725654;37;20726;-58
2021/01/08 06:49:54;;;;;;;;;70.75;57.00;;;;;-1.41;89.01;101088.91;3725654;38;20703;-62
2021/01/08 06:52:26;;;;;;;;;68.00;54.25;;;;;-1.36;89.40;101103.62;3725785;37;20729;-58
2021/01/08 06:54:54;;;;;;;;;66.25;51.50;;;;;-1.29;89.10;101109.41;3725699;38;20723;-60
2021/01/08 06:57:22;;;;;;;;;78.50;57.50;;;;;-1.21;89.24;101120.41;3725744;37;20721;-61
2021/01/08 07:00:06;;;;;;;;;74.00;56.50;;;;;-1.13;89.20;101126.09;3725224;38;20721;-60
2021/01/08 07:02:34;;;;;;;;;70.50;55.25;;;;;-1.08;89.09;101126.69;3725497;37;20983;-60
2021/01/08 07:05:02;;;;;;;;;60.75;51.25;;;;;-0.89;89.11;101141.44;3725303;37;21023;-59
2021/01/08 07:07:31;;;;;;;;;68.25;52.25;;;;;-0.82;89.04;101143.62;3725125;37;20799;-62
2021/01/08 07:09:58;;;;;;;;;76.25;60.00;;;;;-0.81;88.87;101148.00;3725303;38;20827;-58
2021/01/08 07:12:26;;;;;;;;;72.75;56.75;;;;;-0.81;88.93;101152.44;3724392;37;20703;-59
2021/01/08 07:14:54;;;;;;;;;71.75;55.50;;;;;-1.07;88.89;101115.09;3724650;38;20687;-59
2021/01/08 07:17:32;;;;;;;;;76.00;57.50;;;;;-0.85;88.80;101157.09;3724996;38;20694;-62
2021/01/08 07:20:03;;;;;;;;;69.00;54.00;;;;;-0.80;88.72;101157.66;3725358;37;20690;-58
2021/01/08 07:22:39;;;;;;;;;76.25;58.25;;;;;-0.90;88.80;101135.28;3725265;37;18396;-58
2021/01/08 07:25:13;;;;;;;;;75.25;59.00;;;;;-0.68;88.89;101158.69;3725290;37;20687;-60
2021/01/08 07:27:43;;;;;;;;;79.25;62.50;;;;;-0.64;88.91;101162.87;3725567;38;18416;-59
2021/01/08 07:30:13;;;;;;;;;94.50;70.00;;;;;-0.57;88.69;101161.53;3725735;38;18416;-61
2021/01/08 07:32:50;;;;;;;;;97.00;72.75;;;;;-0.59;88.50;101142.16;3723745;38;18416;-59
2021/01/08 07:35:22;;;;;;;;;92.25;65.00;;;;;-0.44;88.84;101164.25;3725220;37;18382;-60
2021/01/08 07:38:02;;;;;;;;;100.25;76.50;;;;;-0.59;88.73;101136.84;3725597;37;18411;-61
2021/01/08 07:41:09;;;;;;;;;101.00;74.25;;;;;-0.27;88.65;101168.47;3725842;38;18385;-63
2021/01/08 07:43:36;;;;;;;;;86.75;64.00;;;;;-0.10;88.67;101160.25;3725815;38;18384;-60
2021/01/08 07:46:04;;;;;;;;;88.25;69.75;;;;;-0.05;88.26;101166.13;3725739;37;18379;-64
2021/01/08 07:48:35;;;;;;;;;94.50;73.25;;;;;-0.17;88.74;101132.34;3725663;38;18377;-62
2021/01/08 07:51:04;;;;;;;;;93.25;71.00;;;;;0.15;88.74;101167.44;3725627;38;18372;-61
2021/01/08 07:53:47;;;;;;;;;94.50;73.00;;;;;0.31;88.59;101182.31;3725801;37;18391;-59
2021/01/08 07:56:24;;;;;;;;;98.25;74.00;;;;;0.32;88.28;101185.81;3725753;38;18381;-63
2021/01/08 07:59:08;;;;;;;;;91.50;70.00;;;;;0.43;88.56;101174.44;3725242;37;18353;-60
2021/01/08 08:01:36;;;;;;;;;100.75;79.50;;;;;0.50;88.12;101178.41;3725544;38;18338;-61
2021/01/08 08:04:10;;;;;;;;;96.25;71.50;;;;;0.53;87.79;101184.34;3725882;38;18377;-61
2021/01/08 08:06:42;;;;;;;;;89.75;71.50;;;;;0.48;87.53;101212.28;3725790;38;18364;-62
2021/01/08 08:09:13;;;;;;;;;89.25;67.25;;;;;0.46;87.61;101216.84;3725708;37;18353;-61
2021/01/08 08:11:40;;;;;;;;;103.25;81.25;;;;;0.45;87.50;101207.16;3725856;38;18340;-61
2021/01/08 08:14:09;;;;;;;;;88.00;67.00;;;;;0.47;87.68;101203.44;3725850;37;18341;-61
2021/01/08 08:16:40;;;;;;;;;83.75;65.25;;;;;0.49;87.68;101190.00;3725547;37;18336;-61
2021/01/08 08:19:11;;;;;;;;;94.00;69.00;;;;;0.51;87.46;101188.09;3725486;38;18331;-63
2021/01/08 08:21:48;;;;;;;;;61.50;49.25;;;;;0.38;87.60;101172.09;3725644;38;18310;-62
2021/01/08 08:24:18;;;;;;;;;83.75;63.25;;;;;0.30;87.34;101148.66;3725562;38;20610;-62
2021/01/08 08:26:45;;;;;;;;;79.00;60.75;;;;;0.61;87.29;101189.16;3725354;38;18307;-59
2021/01/08 08:29:16;;;;;;;;;79.00;62.50;;;;;0.53;87.34;101191.47;3725760;37;20603;-61
2021/01/08 08:31:47;;;;;;;;;87.25;66.00;;;;;0.59;87.42;101183.06;3725895;37;20603;-61
2021/01/08 08:34:26;;;;;;;;;81.50;60.50;;;;;0.66;87.57;101174.56;3725782;37;18335;-60
2021/01/08 08:36:52;;;;;;;;;78.75;59.75;;;;;0.65;87.04;101153.34;3725545;37;20654;-62
2021/01/08 08:39:18;;;;;;;;;79.00;59.00;;;;;0.67;87.04;101146.13;3725923;37;20594;-62
2021/01/08 08:41:45;;;;;;;;;97.50;73.50;;;;;0.83;87.30;101157.44;3725818;38;20570;-60
2021/01/08 08:44:16;;;;;;;;;93.25;69.75;;;;;0.85;86.81;101159.97;3725797;38;18294;-60
2021/01/08 08:46:58;;;;;;;;;102.00;85.75;;;;;0.91;87.32;101163.06;3726321;38;18375;-60
2021/01/08 08:49:34;;;;;;;;;98.50;69.75;;;;;1.10;87.47;101159.94;3725967;37;18305;-60
2021/01/08 08:52:05;;;;;;;;;95.25;75.50;;;;;1.11;87.07;101158.13;3726722;38;18297;-60
2021/01/08 08:54:39;;;;;;;;;96.75;75.50;;;;;1.23;86.98;101178.59;3725499;37;18285;-60
2021/01/08 08:57:05;;;;;;;;;98.25;79.25;;;;;1.24;86.85;101137.66;3725398;37;18543;-61
2021/01/08 08:59:42;;;;;;;;;92.25;70.25;;;;;1.32;86.84;101137.94;3725685;37;18295;-62
2021/01/08 09:02:25;;;;;;;;;97.50;78.50;;;;;1.54;86.91;101155.94;3725805;37;18260;-60
2021/01/08 09:05:04;;;;;;;;;114.25;97.25;;;;;1.65;86.62;101151.50;3725838;38;18585;-60
2021/01/08 09:07:50;;;;;;;;;121.25;102.00;;;;;1.79;86.72;101144.28;3725790;37;18249;-62
2021/01/08 09:10:45;;;;;;;;;97.50;84.25;;;;;1.79;85.63;101130.94;3725681;37;18265;-61
2021/01/08 09:13:15;;;;;;;;;114.00;98.50;;;;;1.75;86.07;101108.13;3724469;38;18258;-62
2021/01/08 09:16:01;;;;;;;;;115.00;99.75;;;;;1.83;86.57;101117.28;3725148;37;18271;-60
2021/01/08 09:18:47;;;;;;;;;104.25;92.00;;;;;1.86;86.09;101117.03;3725305;38;18258;-61
2021/01/08 09:21:34;;;;;;;;;111.75;94.00;;;;;2.00;86.21;101118.69;3725441;38;18252;-61
2021/01/08 09:24:04;;;;;;;;;104.75;89.75;;;;;2.11;85.96;101105.34;3725936;37;18237;-61
2021/01/08 09:26:34;;;;;;;;;109.00;95.75;;;;;2.24;86.09;101108.81;3725442;38;18234;-59
2021/01/08 09:29:01;;;;;;;;;102.75;89.25;;;;;2.17;85.82;101091.53;3725576;37;18220;-60
2021/01/08 09:32:01;;;;;;;;;107.00;90.25;;;;;2.34;86.32;101098.28;3725312;37;18235;-61
2021/01/08 09:34:29;;;;;;;;;99.00;84.75;;;;;2.48;86.20;101079.38;3725789;37;18213;-60
2021/01/08 09:37:00;;;;;;;;;99.00;82.75;;;;;2.79;85.90;101087.66;3725840;37;18247;-61
2021/01/08 09:39:33;;;;;;;;;79.75;60.00;;;;;2.95;85.66;101083.63;3725479;37;18210;-60
2021/01/08 09:42:01;;;;;;;;;65.50;50.75;;;;;3.05;84.30;101088.25;3725192;37;20500;-61
2021/01/08 09:44:41;;;;;;;;;64.75;51.25;;;;;3.13;84.61;101091.16;3725640;38;20497;-60
2021/01/08 09:47:13;;;;;;;;;55.50;42.75;;;;;3.13;83.68;101086.66;3725370;38;20486;-60
2021/01/08 09:49:55;;;;;;;;;55.25;45.25;;;;;3.20;83.89;101078.97;3725322;37;20475;-61
2021/01/08 09:52:28;;;;;;;;;61.00;47.25;;;;;3.20;83.46;101068.28;3725137;37;20488;-59
2021/01/08 09:54:55;;;;;;;;;61.00;47.50;;;;;3.21;82.09;101051.25;3725726;38;20474;-60
2021/01/08 09:57:35;;;;;;;;;53.25;44.50;;;;;3.10;81.55;101046.81;3725583;37;20466;-60
2021/01/08 10:00:08;;;;;;;;;51.75;40.75;;;;;3.12;82.46;101044.81;3725488;37;20480;-61
2021/01/08 10:02:42;;;;;;;;;57.00;46.75;;;;;3.16;82.12;101051.63;3725577;37;20454;-61
2021/01/08 10:05:26;;;;;;;;;62.00;49.25;;;;;3.09;82.20;101029.06;3725800;38;20463;-60
2021/01/08 10:07:59;;;;;;;;;63.75;49.25;;;;;2.70;80.93;100968.09;3725609;38;20448;-61
2021/01/08 10:10:38;;;;;;;;;63.00;48.25;;;;;2.91;81.26;101026.03;3725389;37;20464;-60
2021/01/08 10:13:07;;;;;;;;;62.75;51.50;;;;;2.89;80.89;101011.94;3725657;37;20456;-59
2021/01/08 10:15:40;;;;;;;;;67.25;53.75;;;;;3.01;80.60;101010.13;3725792;37;20452;-62
2021/01/08 10:18:30;;;;;;;;;66.50;53.00;;;;;3.08;81.35;100997.94;3725385;38;20439;-60
2021/01/08 10:21:05;;;;;;;;;67.75;53.75;;;;;3.24;81.14;101009.06;3725752;37;20451;-60
2021/01/08 10:23:43;;;;;;;;;61.25;50.25;;;;;3.29;81.09;101008.69;3725339;37;20414;-61
2021/01/08 10:26:18;;;;;;;;;68.50;53.75;;;;;3.40;80.61;101003.31;3725284;37;20410;-60
2021/01/08 10:28:52;;;;;;;;;67.25;52.75;;;;;3.56;80.67;101011.78;3725543;38;20427;-60
2021/01/08 10:31:20;;;;;;;;;72.00;54.50;;;;;3.60;80.54;101013.22;3725683;37;20427;-61
2021/01/08 10:33:48;;;;;;;;;75.25;54.00;;;;;3.62;80.47;101021.13;3725311;38;20427;-60
2021/01/08 10:36:15;;;;;;;;;62.25;48.25;;;;;3.63;80.16;101022.81;3725776;37;20420;-62
2021/01/08 10:38:43;;;;;;;;;76.25;58.00;;;;;3.67;79.87;101019.72;3725423;38;20387;-62
2021/01/08 10:41:10;;;;;;;;;73.50;55.50;;;;;3.67;79.65;101014.38;3725517;38;20400;-61
2021/01/08 10:43:36;;;;;;;;;73.00;56.25;;;;;3.69;79.93;101014.25;3725044;37;20421;-61
2021/01/08 10:46:05;;;;;;;;;75.75;57.75;;;;;3.55;80.10;100994.03;3725114;38;20411;-61
2021/01/08 10:48:33;;;;;;;;;73.75;56.75;;;;;3.63;79.62;100990.72;3725155;38;20415;-61
2021/01/08 10:51:00;;;;;;;;;75.25;56.75;;;;;3.74;79.74;100989.78;3725335;37;20393;-61
2021/01/08 10:53:27;;;;;;;;;71.00;55.50;;;;;3.72;79.46;100983.69;3725415;37;20376;-61
2021/01/08 10:55:54;;;;;;;;;64.25;50.75;;;;;3.61;78.23;100996.19;3723787;37;20415;-59
2021/01/08 10:58:23;;;;;;;;;65.00;47.50;;;;;3.54;78.81;100986.97;3725389;38;20372;-60
2021/01/08 11:00:51;;;;;;;;;57.75;44.50;;;;;3.50;78.86;100964.12;3725776;37;20396;-61
2021/01/08 11:03:19;;;;;;;;;59.00;44.25;;;;;3.67;78.98;100984.94;3725374;37;20388;-60
2021/01/08 11:05:45;;;;;;;;;58.25;46.25;;;;;3.74;78.79;100979.06;3725829;37;20368;-61
2021/01/08 11:08:13;;;;;;;;;54.50;42.00;;;;;3.75;77.73;100962.03;3725337;37;20377;-59
2021/01/08 11:10:41;;;;;;;;;60.00;46.50;;;;;3.74;76.60;100982.59;3725851;37;20519;-61
2021/01/08 11:13:12;;;;;;;;;51.75;42.00;;;;;3.57;76.62;100949.25;3725707;38;20357;-60
2021/01/08 11:15:40;;;;;;;;;56.50;42.50;;;;;3.56;76.15;100938.66;3725528;37;20335;-62
2021/01/08 11:18:09;;;;;;;;;45.75;37.25;;;;;3.77;76.45;100966.28;3726497;37;20370;-61
2021/01/08 11:20:36;;;;;;;;;51.00;41.50;;;;;3.87;76.50;100953.81;3725789;38;20367;-60
2021/01/08 11:23:04;;;;;;;;;51.75;40.75;;;;;3.88;75.92;100944.78;3726080;37;20355;-61
2021/01/08 11:25:31;;;;;;;;;41.25;37.00;;;;;3.89;75.37;100949.16;3727115;37;20363;-61
2021/01/08 11:27:58;;;;;;;;;48.75;38.75;;;;;3.86;75.47;100930.69;3725482;37;20355;-61